Time;durP1;ratioP1;P1;durP2;ratioP2;P2;SDS_P1;SDS_P2;PMS_P1;PMS_P2;Temp;Humidity;BMP_temperature;BMP_pressure;BME280_temperature;BME280_humidity;BME280_pressure;Samples;Min_cycle;Max_cycle;Signal;HPM_P1;HPM_P2
2022/01/25 00:28:24;;;;;;;77.88;32.42;;;7.00;97.80;;;;;;5053166;28;20140;-83
2022/01/25 00:33:36;;;;;;;73.00;31.45;;;6.90;97.80;;;;;;5072789;28;20052;-84
2022/01/25 00:36:05;;;;;;;77.65;31.33;;;6.90;97.70;;;;;;5072574;28;20526;-84
2022/01/25 00:38:31;;;;;;;69.32;29.38;;;6.90;97.70;;;;;;5055538;28;20094;-84
2022/01/25 00:40:57;;;;;;;78.40;32.63;;;7.00;97.90;;;;;;5072542;28;20097;-84
2022/01/25 00:43:24;;;;;;;73.15;30.60;;;7.00;97.70;;;;;;5039172;28;20056;-83
2022/01/25 00:45:53;;;;;;;75.63;31.27;;;7.00;97.80;;;;;;5072506;28;20483;-84
2022/01/25 00:48:30;;;;;;;74.20;31.10;;;7.00;97.70;;;;;;5072630;28;20059;-84
2022/01/25 00:51:17;;;;;;;79.97;33.13;;;7.00;97.70;;;;;;5072552;28;20091;-83
2022/01/25 00:56:43;;;;;;;78.97;32.42;;;6.90;97.80;;;;;;5075662;28;20363;-83
2022/01/25 00:59:11;;;;;;;78.50;32.55;;;7.00;97.90;;;;;;5076570;28;20072;-83
2022/01/25 01:01:39;;;;;;;76.30;32.60;;;7.00;97.90;;;;;;5076448;28;20044;-84
2022/01/25 01:04:06;;;;;;;76.38;31.42;;;7.00;97.80;;;;;;5076389;28;20048;-84
2022/01/25 01:06:32;;;;;;;71.32;31.20;;;7.00;97.70;;;;;;5059484;28;20090;-84
2022/01/25 01:08:58;;;;;;;78.63;33.50;;;6.90;98.00;;;;;;5076518;28;20040;-84
2022/01/25 01:11:35;;;;;;;74.47;33.08;;;6.90;97.90;;;;;;5076315;28;20056;-84
2022/01/25 01:14:12;;;;;;;76.50;32.40;;;6.90;98.00;;;;;;5075681;28;20068;-84
2022/01/25 01:33:26;;;;;;;81.50;34.33;;;7.00;98.00;;;;;;5076020;28;20510;-84
2022/01/25 01:43:57;;;;;;;80.20;32.83;;;7.00;98.00;;;;;;5075528;28;20052;-83
2022/01/25 01:46:37;;;;;;;71.82;32.85;;;6.90;98.10;;;;;;5059004;28;20471;-84
2022/01/25 01:49:05;;;;;;;82.95;34.40;;;6.90;98.20;;;;;;5075665;28;20064;-84
2022/01/25 01:51:34;;;;;;;78.65;33.70;;;7.00;98.10;;;;;;5058569;28;20040;-84
2022/01/25 01:54:09;;;;;;;81.97;35.63;;;7.00;98.00;;;;;;5075551;28;20048;-83
2022/01/25 01:56:37;;;;;;;84.30;37.08;;;7.10;98.00;;;;;;5075219;28;20052;-84
2022/01/25 01:59:06;;;;;;;82.20;34.75;;;7.10;97.90;;;;;;5075123;28;20049;-84
2022/01/25 02:01:32;;;;;;;78.47;33.45;;;7.00;98.00;;;;;;5058547;28;20060;-84
2022/01/25 02:04:00;;;;;;;81.25;34.50;;;6.90;97.90;;;;;;5058779;28;20044;-84
2022/01/25 02:06:26;;;;;;;83.90;34.35;;;7.00;98.10;;;;;;5074454;28;20369;-83
2022/01/25 02:08:52;;;;;;;82.97;35.45;;;7.10;97.90;;;;;;5074865;28;20468;-83
2022/01/25 02:11:18;;;;;;;77.55;33.45;;;7.00;97.80;;;;;;5058333;28;20070;-83
2022/01/25 02:13:46;;;;;;;83.05;35.78;;;7.00;98.10;;;;;;5057951;28;20121;-84
2022/01/25 02:24:32;;;;;;;80.78;34.60;;;6.90;98.20;;;;;;5075270;28;20071;-84
2022/01/25 02:26:58;;;;;;;84.28;35.53;;;7.00;98.20;;;;;;5057682;28;20052;-83
2022/01/25 02:29:25;;;;;;;86.10;36.63;;;7.00;98.00;;;;;;5074874;28;20079;-84
2022/01/25 02:31:52;;;;;;;94.03;36.60;;;7.10;97.90;;;;;;5074028;28;20139;-84
2022/01/25 02:34:18;;;;;;;85.10;34.38;;;7.00;98.00;;;;;;5074218;28;20472;-84
2022/01/25 02:36:44;;;;;;;82.10;35.67;;;7.00;98.10;;;;;;5074423;28;20044;-83
2022/01/25 02:39:09;;;;;;;87.57;36.10;;;6.90;98.20;;;;;;5074278;28;20091;-84
2022/01/25 02:41:36;;;;;;;89.97;36.42;;;6.80;98.10;;;;;;5091060;28;20052;-84
2022/01/25 02:44:04;;;;;;;83.93;34.58;;;6.70;98.10;;;;;;5057716;28;20145;-83
2022/01/25 02:49:01;;;;;;;76.80;32.60;;;6.60;98.00;;;;;;5074231;28;20390;-84
2022/01/25 02:51:29;;;;;;;87.68;36.47;;;6.40;98.40;;;;;;5074267;28;20103;-84
2022/01/25 02:53:55;;;;;;;88.80;36.08;;;6.50;98.40;;;;;;5073995;28;20395;-84
2022/01/25 02:56:22;;;;;;;76.18;33.90;;;6.60;98.30;;;;;;5073897;28;20135;-84
2022/01/25 02:58:48;;;;;;;85.05;35.28;;;6.70;98.30;;;;;;5073976;28;20397;-84
2022/01/25 03:01:14;;;;;;;86.57;35.88;;;6.80;98.20;;;;;;5073923;28;20049;-84
2022/01/25 03:03:40;;;;;;;76.63;33.58;;;6.80;98.00;;;;;;5073836;28;20056;-84
2022/01/25 03:06:06;;;;;;;82.95;33.63;;;6.70;98.30;;;;;;5057043;28;20051;-84
2022/01/25 03:08:32;;;;;;;85.40;34.22;;;6.80;98.30;;;;;;5057478;28;20047;-83
2022/01/25 03:10:58;;;;;;;74.57;32.50;;;6.80;98.20;;;;;;5073995;28;20052;-83
2022/01/25 03:13:31;;;;;;;80.47;34.60;;;6.80;98.20;;;;;;5056909;28;20514;-83
2022/01/25 03:16:05;;;;;;;74.82;33.10;;;6.80;98.20;;;;;;5090656;28;20105;-84
2022/01/25 03:21:02;;;;;;;77.28;32.72;;;6.80;98.30;;;;;;5073138;28;20102;-84
2022/01/25 03:23:29;;;;;;;75.40;31.88;;;6.90;98.40;;;;;;5057575;28;20139;-84
2022/01/25 03:25:55;;;;;;;79.35;32.17;;;7.00;98.10;;;;;;5056204;28;20487;-84
2022/01/25 03:28:21;;;;;;;79.18;34.80;;;7.10;98.00;;;;;;5073769;28;20113;-84
2022/01/25 03:30:48;;;;;;;77.82;32.75;;;7.10;97.90;;;;;;5073370;28;20048;-83
2022/01/25 03:33:15;;;;;;;76.05;31.73;;;7.00;97.90;;;;;;5073334;28;20079;-84
2022/01/25 03:35:41;;;;;;;73.88;31.70;;;7.00;98.00;;;;;;5073116;28;20044;-84
2022/01/25 03:38:07;;;;;;;69.95;31.10;;;7.00;98.10;;;;;;5073540;28;20051;-83
2022/01/25 03:40:33;;;;;;;61.92;27.85;;;7.00;98.00;;;;;;5073526;28;20131;-83
2022/01/25 03:43:00;;;;;;;72.75;31.05;;;7.10;98.00;;;;;;5073678;28;20072;-83
2022/01/25 03:45:31;;;;;;;69.93;31.30;;;7.10;98.20;;;;;;5073498;28;20040;-84
2022/01/25 03:50:43;;;;;;;69.93;31.48;;;7.00;98.00;;;;;;5074151;28;20116;-84
2022/01/25 03:53:10;;;;;;;76.75;31.73;;;7.00;98.00;;;;;;5056556;28;20102;-83
2022/01/25 03:55:36;;;;;;;71.40;31.05;;;7.00;98.20;;;;;;5056656;28;20488;-84
2022/01/25 03:58:03;;;;;;;67.22;29.55;;;7.00;98.00;;;;;;5072587;28;20056;-84
2022/01/25 04:00:29;;;;;;;70.55;30.40;;;6.90;98.10;;;;;;5073038;28;20071;-84
2022/01/25 04:03:01;;;;;;;70.55;31.25;;;6.90;97.90;;;;;;5073053;28;20480;-84
2022/01/25 04:05:37;;;;;;;66.43;30.48;;;6.70;97.80;;;;;;5072991;28;20051;-84
2022/01/25 04:08:04;;;;;;;74.72;31.80;;;6.70;98.10;;;;;;5073116;28;20052;-84
2022/01/25 04:10:30;;;;;;;68.53;29.48;;;6.80;98.20;;;;;;5072782;28;20040;-84
2022/01/25 04:12:56;;;;;;;77.80;31.42;;;6.80;98.20;;;;;;5072740;28;20383;-83
2022/01/25 04:15:22;;;;;;;73.05;30.75;;;6.90;98.10;;;;;;5072732;28;20058;-84
2022/01/25 04:17:54;;;;;;;66.38;30.20;;;6.90;98.10;;;;;;5073080;28;20052;-84
2022/01/25 04:20:28;;;;;;;69.45;30.33;;;6.90;98.10;;;;;;5055990;28;20091;-84
2022/01/25 04:25:38;;;;;;;76.53;31.63;;;7.00;98.10;;;;;;5072720;28;20056;-83
2022/01/25 04:28:04;;;;;;;70.55;30.15;;;7.00;98.00;;;;;;5055487;28;20051;-83
2022/01/25 04:30:30;;;;;;;72.03;31.58;;;7.00;98.10;;;;;;5075906;28;20043;-84
2022/01/25 04:33:02;;;;;;;71.50;30.42;;;7.00;98.00;;;;;;5059962;28;20041;-83
2022/01/25 04:49:18;;;;;;;71.72;31.48;;;6.90;98.10;;;;;;5076472;28;20494;-83
2022/01/25 04:51:56;;;;;;;70.53;31.00;;;6.90;98.20;;;;;;5076748;28;20055;-83
2022/01/25 04:59:33;;;;;;;72.95;32.85;;;6.90;98.20;;;;;;5076263;28;20114;-84
2022/01/25 05:02:05;;;;;;;78.28;32.67;;;6.90;98.10;;;;;;5076248;28;20040;-84
2022/01/25 05:04:37;;;;;;;68.55;30.95;;;6.90;98.20;;;;;;5075903;28;20044;-84
2022/01/25 05:07:32;;;;;;;70.70;32.30;;;7.00;98.20;;;;;;5059498;28;20063;-84
2022/01/25 05:09:51;;;;;;;72.97;31.50;;;6.80;98.30;;;;;;5109399;28;20102;-83
2022/01/25 05:12:17;;;;;;;75.78;31.58;;;6.90;98.40;;;;;;5059329;28;20114;-83
2022/01/25 05:14:59;;;;;;;74.50;32.22;;;6.90;98.50;;;;;;5075461;28;20052;-84
2022/01/25 05:17:35;;;;;;;72.38;32.15;;;6.90;98.40;;;;;;5061703;28;20044;-84
2022/01/25 05:22:45;;;;;;;71.88;31.63;;;6.90;98.40;;;;;;5076020;28;20091;-83
2022/01/25 05:25:10;;;;;;;74.80;32.47;;;7.00;98.50;;;;;;5075737;28;20072;-83
2022/01/25 05:27:36;;;;;;;77.18;34.17;;;7.00;98.40;;;;;;5074942;28;20055;-84
2022/01/25 05:30:03;;;;;;;78.18;33.78;;;6.90;98.30;;;;;;5075625;28;20055;-83
2022/01/25 05:32:33;;;;;;;84.32;34.20;;;7.00;98.20;;;;;;5075529;28;20044;-84
2022/01/25 05:35:00;;;;;;;85.72;37.33;;;6.90;98.10;;;;;;5058909;28;20106;-83
2022/01/25 05:37:26;;;;;;;81.22;33.58;;;6.90;98.10;;;;;;5075423;28;20045;-84
2022/01/25 05:39:52;;;;;;;76.55;34.00;;;6.90;98.20;;;;;;5058625;28;20058;-83
2022/01/25 05:47:20;;;;;;;82.43;34.92;;;6.90;98.10;;;;;;5075475;28;20057;-83
2022/01/25 05:49:46;;;;;;;83.35;35.50;;;6.90;98.30;;;;;;5075511;28;20063;-83
2022/01/25 05:52:12;;;;;;;79.85;33.17;;;7.10;98.30;;;;;;5075397;28;20040;-83
2022/01/25 05:54:39;;;;;;;82.05;35.28;;;6.90;98.40;;;;;;5075508;28;20120;-83
2022/01/25 05:57:06;;;;;;;87.43;36.67;;;7.00;98.20;;;;;;5057888;28;20045;-84
2022/01/25 05:59:33;;;;;;;78.10;33.58;;;7.00;98.10;;;;;;5075060;28;20465;-84
2022/01/25 06:01:58;;;;;;;81.05;34.30;;;6.90;98.20;;;;;;5075345;28;20040;-84
2022/01/25 06:04:24;;;;;;;72.15;31.00;;;6.80;98.30;;;;;;5041430;28;20499;-84
2022/01/25 06:06:51;;;;;;;78.65;33.00;;;6.90;98.40;;;;;;5074838;28;20392;-83
2022/01/25 06:09:17;;;;;;;71.45;31.92;;;6.90;98.40;;;;;;5058191;28;20077;-83
2022/01/25 06:11:43;;;;;;;74.10;31.30;;;6.80;98.30;;;;;;5074957;28;20452;-84
2022/01/25 06:14:09;;;;;;;79.65;33.45;;;6.90;98.50;;;;;;5074320;28;20091;-84
2022/01/25 06:16:35;;;;;;;66.75;31.35;;;6.90;98.30;;;;;;5074886;28;20080;-84
2022/01/25 06:19:01;;;;;;;74.78;31.42;;;6.80;98.40;;;;;;5074554;28;20044;-84
2022/01/25 06:21:27;;;;;;;67.72;30.52;;;6.80;98.60;;;;;;5074872;28;20175;-84
2022/01/25 06:23:53;;;;;;;74.43;33.15;;;6.90;98.40;;;;;;5074554;28;20131;-83
2022/01/25 06:26:19;;;;;;;76.45;33.60;;;6.90;98.50;;;;;;5073599;28;20495;-83
2022/01/25 06:28:45;;;;;;;78.75;33.33;;;6.90;98.40;;;;;;5057861;28;20086;-84
2022/01/25 06:31:11;;;;;;;72.75;32.50;;;7.00;98.40;;;;;;5074491;28;20041;-84
2022/01/25 06:33:41;;;;;;;73.18;31.98;;;7.00;98.40;;;;;;5074208;28;20475;-84
2022/01/25 06:36:07;;;;;;;75.47;32.75;;;6.90;98.50;;;;;;5058063;28;20135;-83
2022/01/25 06:38:33;;;;;;;77.03;33.33;;;6.90;98.50;;;;;;5074486;28;20123;-83
2022/01/25 06:40:58;;;;;;;74.43;32.30;;;6.90;98.50;;;;;;5057734;28;20571;-83
2022/01/25 06:43:24;;;;;;;75.55;31.77;;;6.90;98.50;;;;;;5074401;28;20045;-83
2022/01/25 06:45:56;;;;;;;78.88;32.50;;;6.90;98.50;;;;;;5058172;28;20048;-83
2022/01/25 06:48:22;;;;;;;74.03;31.55;;;6.90;98.50;;;;;;5074326;28;20060;-84
2022/01/25 06:50:48;;;;;;;76.20;31.80;;;6.70;98.50;;;;;;5074196;28;20051;-84
2022/01/25 06:53:14;;;;;;;84.00;33.28;;;6.50;98.70;;;;;;5081559;28;20040;-83
2022/01/25 06:55:41;;;;;;;75.82;32.65;;;6.60;98.80;;;;;;5078002;28;20048;-84
2022/01/25 06:58:07;;;;;;;82.18;33.55;;;6.70;98.90;;;;;;5078611;28;20041;-83
2022/01/25 07:00:33;;;;;;;85.88;34.50;;;6.80;98.70;;;;;;5079279;28;20098;-85
2022/01/25 07:02:59;;;;;;;76.38;31.58;;;6.90;98.60;;;;;;5073903;28;20041;-84
2022/01/25 07:05:25;;;;;;;77.22;31.27;;;6.90;98.70;;;;;;5057560;28;20070;-84
2022/01/25 07:07:52;;;;;;;75.50;32.40;;;6.90;98.70;;;;;;5073821;28;20078;-84
2022/01/25 07:10:18;;;;;;;70.10;31.20;;;6.90;98.70;;;;;;5073705;28;20131;-84
2022/01/25 07:12:44;;;;;;;72.53;32.45;;;6.90;98.70;;;;;;5074081;28;20094;-84
2022/01/25 07:15:11;;;;;;;72.55;29.83;;;7.00;98.40;;;;;;5072852;28;20547;-85
2022/01/25 07:17:37;;;;;;;73.43;31.98;;;7.00;98.70;;;;;;5073450;28;20087;-84
2022/01/25 07:20:06;;;;;;;79.97;33.72;;;7.00;98.60;;;;;;5057000;28;20083;-84
2022/01/25 07:22:32;;;;;;;73.75;32.05;;;7.00;98.50;;;;;;5073532;28;20055;-84
2022/01/25 07:24:58;;;;;;;83.95;34.20;;;6.90;98.60;;;;;;5073181;28;20518;-84
2022/01/25 07:27:24;;;;;;;79.15;33.45;;;6.90;98.60;;;;;;5072916;28;20072;-84
2022/01/25 07:29:49;;;;;;;86.43;35.50;;;6.90;98.50;;;;;;5073363;28;20437;-84
2022/01/25 07:32:15;;;;;;;79.82;33.00;;;7.00;98.70;;;;;;5056331;28;20066;-84
2022/01/25 07:34:41;;;;;;;75.97;32.40;;;6.90;98.50;;;;;;5073216;28;20217;-84
2022/01/25 07:37:07;;;;;;;85.07;35.63;;;6.90;98.80;;;;;;5056630;28;20041;-84
2022/01/25 07:39:32;;;;;;;76.78;32.95;;;7.00;98.60;;;;;;5073095;28;20044;-85
2022/01/25 07:41:59;;;;;;;85.88;33.95;;;7.00;98.70;;;;;;5073127;28;20078;-84
2022/01/25 07:44:29;;;;;;;92.70;36.47;;;7.00;98.40;;;;;;5073092;28;20055;-84
2022/01/25 07:46:57;;;;;;;95.45;35.13;;;7.00;98.40;;;;;;5056535;28;20044;-84
2022/01/25 07:49:27;;;;;;;92.72;35.88;;;6.90;98.50;;;;;;5073124;28;20063;-84
2022/01/25 07:51:56;;;;;;;86.28;34.28;;;6.70;98.50;;;;;;5073409;28;20381;-84
2022/01/25 07:54:22;;;;;;;83.75;34.50;;;6.70;98.70;;;;;;5073027;28;20044;-84
2022/01/25 07:56:48;;;;;;;82.38;33.83;;;6.80;98.80;;;;;;5072505;28;20040;-85
2022/01/25 07:59:14;;;;;;;90.22;35.53;;;6.80;98.70;;;;;;5089727;28;20044;-84
2022/01/25 08:01:40;;;;;;;85.60;34.20;;;6.90;98.70;;;;;;5072556;28;20049;-85
2022/01/25 08:04:08;;;;;;;78.53;32.25;;;6.90;98.80;;;;;;5071891;28;20561;-78
2022/01/25 08:06:35;;;;;;;84.25;32.03;;;6.90;98.70;;;;;;5106370;28;20491;-71
2022/01/25 08:09:01;;;;;;;74.28;32.70;;;6.90;98.60;;;;;;5072395;28;20056;-71
2022/01/25 08:11:27;;;;;;;85.72;34.13;;;6.90;98.50;;;;;;5072238;28;20045;-71
2022/01/25 08:14:00;;;;;;;76.05;32.38;;;6.90;98.60;;;;;;5072392;28;20060;-70
2022/01/25 08:16:26;;;;;;;91.35;36.08;;;7.00;98.60;;;;;;5073631;28;20044;-70
2022/01/25 08:18:52;;;;;;;91.05;36.17;;;7.00;98.50;;;;;;5073870;28;20049;-70
2022/01/25 08:21:18;;;;;;;82.40;33.15;;;7.10;98.50;;;;;;5073588;28;20427;-70
2022/01/25 08:23:43;;;;;;;85.47;34.75;;;7.10;98.40;;;;;;5073873;28;20048;-70
2022/01/25 08:26:09;;;;;;;85.63;33.03;;;7.00;98.40;;;;;;5072200;28;20053;-71
2022/01/25 08:28:35;;;;;;;87.20;34.22;;;7.00;98.50;;;;;;5073573;28;20487;-70
2022/01/25 08:31:01;;;;;;;91.68;36.03;;;7.00;98.50;;;;;;5073625;28;20056;-70
2022/01/25 08:33:26;;;;;;;95.78;35.17;;;7.00;98.60;;;;;;5073564;28;20051;-71
2022/01/25 08:35:52;;;;;;;85.30;34.15;;;7.00;98.60;;;;;;5073420;28;20041;-72
2022/01/25 08:38:18;;;;;;;92.18;35.65;;;7.00;98.60;;;;;;5076290;28;20044;-72
2022/01/25 08:40:43;;;;;;;82.65;33.95;;;7.00;98.60;;;;;;5079484;28;20048;-73
2022/01/25 08:43:09;;;;;;;80.50;33.25;;;7.10;98.60;;;;;;5055704;28;20085;-72
2022/01/25 08:45:35;;;;;;;90.90;35.60;;;7.00;98.50;;;;;;5072391;28;20045;-72
2022/01/25 08:48:00;;;;;;;74.75;32.58;;;7.10;98.60;;;;;;5072224;28;20051;-71
2022/01/25 08:50:26;;;;;;;78.75;32.83;;;6.90;98.60;;;;;;5072312;28;20124;-72
2022/01/25 08:52:52;;;;;;;85.72;36.42;;;6.90;98.80;;;;;;5072289;28;20076;-72
2022/01/25 08:55:17;;;;;;;82.03;33.53;;;7.00;98.80;;;;;;5073259;28;20498;-72
2022/01/25 08:57:43;;;;;;;84.07;34.47;;;6.90;98.80;;;;;;5072751;28;20387;-74
2022/01/25 09:00:11;;;;;;;85.38;34.13;;;7.00;99.00;;;;;;5072122;28;20127;-72
2022/01/25 09:02:39;;;;;;;87.82;36.22;;;7.00;98.80;;;;;;5055556;28;20049;-71
2022/01/25 09:05:05;;;;;;;95.95;37.47;;;7.10;98.80;;;;;;5073180;28;20459;-73
2022/01/25 09:07:31;;;;;;;87.00;35.83;;;7.00;98.60;;;;;;5069965;28;20083;-73
2022/01/25 09:09:57;;;;;;;77.40;32.95;;;7.00;98.70;;;;;;5091962;28;20471;-72
2022/01/25 09:12:22;;;;;;;82.78;33.50;;;7.10;98.80;;;;;;5082432;28;20426;-72
2022/01/25 09:14:48;;;;;;;77.47;33.67;;;7.10;98.90;;;;;;5088507;28;20492;-72
2022/01/25 09:17:14;;;;;;;84.53;33.80;;;7.10;98.70;;;;;;5075495;28;20057;-72
2022/01/25 09:19:41;;;;;;;91.10;34.97;;;7.10;98.90;;;;;;5075493;28;20131;-72
2022/01/25 09:22:08;;;;;;;92.88;36.92;;;7.20;98.90;;;;;;5058559;28;20048;-72
2022/01/25 09:24:34;;;;;;;83.50;35.25;;;7.10;98.80;;;;;;5079660;28;20117;-73
2022/01/25 09:27:02;;;;;;;84.80;34.80;;;7.10;98.80;;;;;;5075881;28;20047;-72
2022/01/25 09:29:28;;;;;;;79.13;35.25;;;7.20;99.00;;;;;;5075153;28;20060;-72
2022/01/25 09:31:53;;;;;;;82.47;33.60;;;7.20;98.70;;;;;;5075332;28;20048;-73
2022/01/25 09:34:23;;;;;;;85.90;34.78;;;7.10;99.00;;;;;;5075305;28;20059;-73
2022/01/25 09:36:50;;;;;;;77.32;32.80;;;7.10;98.90;;;;;;5075066;28;20052;-72
2022/01/25 09:39:16;;;;;;;84.60;33.60;;;7.10;98.90;;;;;;5075065;28;20109;-73
2022/01/25 09:41:42;;;;;;;81.90;34.03;;;7.10;99.00;;;;;;5090768;28;20052;-73
2022/01/25 09:44:07;;;;;;;90.75;35.58;;;7.10;98.90;;;;;;5095294;28;20566;-72
2022/01/25 09:46:33;;;;;;;100.97;36.70;;;7.10;98.90;;;;;;5129537;27;20051;-72
2022/01/25 09:48:59;;;;;;;84.65;33.20;;;7.20;98.80;;;;;;5095307;28;20110;-72
2022/01/25 09:51:25;;;;;;;90.68;35.70;;;7.10;98.90;;;;;;5094972;28;20394;-76
2022/01/25 09:53:51;;;;;;;96.13;35.30;;;7.20;98.90;;;;;;5074312;28;20521;-75
2022/01/25 09:56:17;;;;;;;96.55;36.25;;;7.20;98.90;;;;;;5091453;28;20058;-74
2022/01/25 09:58:44;;;;;;;104.70;37.00;;;7.20;98.90;;;;;;5061713;28;20037;-73
2022/01/25 10:01:11;;;;;;;93.38;34.08;;;7.10;99.00;;;;;;5060171;28;20063;-75
2022/01/25 10:03:39;;;;;;;105.32;38.80;;;7.00;98.90;;;;;;5094896;28;20048;-75
2022/01/25 10:06:17;;;;;;;92.43;34.85;;;6.90;98.80;;;;;;5094840;28;20128;-73
2022/01/25 10:08:44;;;;;;;98.53;36.05;;;6.80;99.20;;;;;;5095213;28;20127;-75
2022/01/25 10:11:16;;;;;;;92.78;34.90;;;6.90;99.10;;;;;;5078082;28;20088;-76
2022/01/25 10:13:51;;;;;;;97.13;36.40;;;6.90;99.10;;;;;;5097271;28;20052;-78
2022/01/25 10:16:38;;;;;;;101.80;37.28;;;7.00;99.20;;;;;;5097501;28;20131;-76
2022/01/25 10:19:08;;;;;;;103.97;37.10;;;6.90;99.10;;;;;;5095908;28;20047;-77
2022/01/25 10:21:42;;;;;;;102.32;37.78;;;6.80;99.10;;;;;;5094751;28;20527;-77
2022/01/25 10:24:19;;;;;;;103.90;37.83;;;6.70;99.30;;;;;;5077880;28;20052;-77
2022/01/25 10:26:55;;;;;;;111.55;39.42;;;6.70;99.30;;;;;;5093698;28;20048;-82
2022/01/25 10:29:25;;;;;;;111.55;38.33;;;6.60;99.30;;;;;;5077860;28;20055;-79
2022/01/25 10:32:00;;;;;;;115.47;39.20;;;6.60;99.30;;;;;;5094582;28;20063;-76
2022/01/25 10:34:49;;;;;;;106.30;38.25;;;6.50;99.50;;;;;;5077721;28;20087;-77
2022/01/25 10:37:18;;;;;;;106.15;35.65;;;6.60;99.60;;;;;;5094455;28;20471;-77
2022/01/25 10:39:46;;;;;;;113.13;37.42;;;6.70;99.70;;;;;;5094359;28;20114;-77
2022/01/25 10:42:17;;;;;;;116.47;39.42;;;6.80;99.50;;;;;;5094151;28;20063;-76
2022/01/25 10:44:54;;;;;;;106.20;38.50;;;6.70;99.40;;;;;;5094274;28;20044;-76
2022/01/25 10:47:44;;;;;;;108.65;38.67;;;6.60;99.40;;;;;;5077145;28;20073;-78
2022/01/25 10:50:15;;;;;;;110.18;39.72;;;6.50;99.60;;;;;;5094555;28;20430;-74
2022/01/25 10:52:41;;;;;;;112.38;39.78;;;6.60;99.50;;;;;;5094141;28;20448;-73
2022/01/25 10:55:07;;;;;;;115.38;39.13;;;6.60;99.60;;;;;;5095809;28;20101;-73
2022/01/25 10:57:34;;;;;;;112.75;39.90;;;6.70;99.60;;;;;;5094660;28;20119;-73
2022/01/25 11:00:06;;;;;;;103.47;37.13;;;6.50;99.60;;;;;;5094067;28;20048;-73
2022/01/25 11:02:32;;;;;;;108.20;39.38;;;6.60;99.70;;;;;;5095892;28;20097;-72
2022/01/25 11:05:09;;;;;;;114.10;38.15;;;6.50;99.50;;;;;;5094968;28;20096;-73
2022/01/25 11:07:39;;;;;;;105.75;37.60;;;6.30;99.70;;;;;;5095145;28;20136;-73
2022/01/25 11:10:07;;;;;;;104.03;36.85;;;6.40;99.80;;;;;;5095439;28;20051;-73
2022/01/25 11:12:38;;;;;;;97.55;35.90;;;6.50;99.80;;;;;;5094868;28;20048;-73
2022/01/25 11:15:05;;;;;;;99.43;36.50;;;6.60;99.80;;;;;;5095463;28;20060;-73
2022/01/25 11:17:32;;;;;;;109.13;38.00;;;6.70;99.80;;;;;;5094672;28;20044;-74
2022/01/25 11:20:00;;;;;;;107.85;38.08;;;6.90;99.70;;;;;;5094260;28;20044;-73
2022/01/25 11:22:27;;;;;;;110.97;39.00;;;6.70;99.50;;;;;;5094717;28;20055;-73
2022/01/25 11:24:53;;;;;;;116.35;40.05;;;6.60;99.60;;;;;;5095296;28;20123;-73
2022/01/25 11:27:21;;;;;;;115.03;39.85;;;6.60;99.90;;;;;;5093511;28;20538;-73
2022/01/25 11:29:50;;;;;;;114.80;38.13;;;6.70;99.70;;;;;;5094696;28;20128;-74
2022/01/25 11:32:20;;;;;;;112.35;39.35;;;6.70;99.80;;;;;;5094110;28;20518;-73
2022/01/25 11:34:47;;;;;;;112.70;38.47;;;6.80;99.60;;;;;;5094449;28;20040;-73
2022/01/25 11:37:14;;;;;;;116.38;40.65;;;6.80;99.70;;;;;;5094277;28;20083;-73
2022/01/25 11:39:43;;;;;;;115.13;40.78;;;6.60;99.60;;;;;;5093069;28;20047;-73
2022/01/25 11:42:12;;;;;;;109.50;39.13;;;6.60;99.90;;;;;;5094295;28;20044;-73
2022/01/25 11:44:53;;;;;;;102.60;37.80;;;6.70;99.80;;;;;;5095049;28;20075;-73
2022/01/25 11:47:23;;;;;;;119.60;39.75;;;6.60;99.90;;;;;;5094159;28;20144;-73
2022/01/25 11:49:54;;;;;;;114.55;38.92;;;6.60;99.80;;;;;;5094170;28;20387;-73
2022/01/25 11:52:22;;;;;;;115.45;39.20;;;6.40;99.90;;;;;;5094138;28;20135;-73
2022/01/25 11:54:52;;;;;;;120.95;39.55;;;6.40;99.90;;;;;;5093051;28;20048;-73
2022/01/25 11:57:24;;;;;;;107.03;37.70;;;6.50;99.90;;;;;;5093900;28;20376;-73
2022/01/25 11:59:57;;;;;;;101.78;36.38;;;6.60;99.90;;;;;;5094245;28;20058;-73
2022/01/25 12:02:47;;;;;;;111.00;38.17;;;6.70;99.90;;;;;;5093970;28;20040;-73
2022/01/25 12:05:24;;;;;;;102.85;36.80;;;6.70;99.80;;;;;;5093088;28;20056;-73
2022/01/25 12:08:10;;;;;;;117.20;39.55;;;6.60;99.90;;;;;;5093106;28;20098;-73
2022/01/25 12:10:43;;;;;;;109.35;39.97;;;6.50;99.90;;;;;;5093927;28;20483;-73
2022/01/25 12:13:20;;;;;;;123.95;39.28;;;6.50;99.90;;;;;;5094192;28;20055;-73
2022/01/25 12:16:23;;;;;;;112.32;37.80;;;6.20;99.90;;;;;;5093526;28;20463;-73
2022/01/25 12:19:02;;;;;;;122.10;40.55;;;6.20;99.90;;;;;;5093936;28;20399;-73
2022/01/25 12:21:51;;;;;;;118.32;38.92;;;6.30;99.90;;;;;;5092785;28;20093;-73
2022/01/25 12:24:27;;;;;;;112.88;40.42;;;6.40;99.90;;;;;;5092597;28;20094;-73
2022/01/25 12:29:57;;;;;;;103.90;35.40;;;6.60;99.90;;;;;;5094354;28;20081;-73
2022/01/25 12:32:33;;;;;;;115.28;39.80;;;6.60;99.90;;;;;;5093725;28;20051;-73
2022/01/25 12:34:59;;;;;;;;;;;6.70;99.90;;;;;;5093429;28;20044;-73
2022/01/25 12:37:43;;;;;;;121.47;38.10;;;6.50;99.90;;;;;;5092607;28;19920;-73
2022/01/25 12:40:31;;;;;;;112.85;37.70;;;6.60;99.90;;;;;;5092633;28;20123;-73
2022/01/25 12:43:04;;;;;;;123.55;41.00;;;6.70;99.90;;;;;;5093060;28;20051;-73
2022/01/25 12:45:34;;;;;;;114.60;38.25;;;6.70;99.90;;;;;;5092518;28;20140;-74
2022/01/25 12:48:04;;;;;;;131.32;41.22;;;6.70;99.90;;;;;;5093579;28;20079;-73
2022/01/25 12:50:30;;;;;;;121.82;39.90;;;6.70;99.90;;;;;;5076908;28;20052;-73
2022/01/25 12:52:59;;;;;;;123.00;39.08;;;6.60;99.90;;;;;;5096555;28;20380;-73
2022/01/25 12:55:31;;;;;;;130.95;40.72;;;6.50;99.90;;;;;;5097675;28;20383;-73
2022/01/25 12:57:57;;;;;;;119.95;41.03;;;6.60;99.90;;;;;;5095959;28;20044;-73
2022/01/25 13:00:36;;;;;;;121.53;41.00;;;6.80;99.90;;;;;;5097322;28;20489;-73
2022/01/25 13:03:31;;;;;;;101.90;36.10;;;6.60;99.90;;;;;;5096323;28;20112;-73
2022/01/25 13:05:58;;;;;;;121.93;39.75;;;6.50;99.90;;;;;;5097336;28;20079;-73
2022/01/25 13:08:32;;;;;;;114.93;38.83;;;6.50;99.90;;;;;;5096178;28;20048;-73
2022/01/25 13:12:09;;;;;;;129.07;41.72;;;6.40;99.90;;;;;;5096445;28;20040;-73
2022/01/25 13:14:44;;;;;;;124.10;39.92;;;6.50;99.90;;;;;;5095952;28;20099;-73
2022/01/25 13:17:23;;;;;;;116.10;39.50;;;6.60;99.90;;;;;;5097045;28;20048;-73
2022/01/25 13:20:03;;;;;;;100.50;35.45;;;6.60;99.90;;;;;;5096013;28;20121;-73
2022/01/25 13:22:41;;;;;;;125.80;40.42;;;6.60;99.90;;;;;;5096243;28;20071;-73
2022/01/25 13:25:27;;;;;;;124.68;40.13;;;6.60;99.90;;;;;;5097038;28;20130;-73
2022/01/25 13:27:58;;;;;;;126.07;41.67;;;6.40;99.90;;;;;;5095712;28;20096;-73
2022/01/25 13:30:42;;;;;;;110.90;38.15;;;6.40;99.90;;;;;;5095702;28;20044;-73
2022/01/25 13:33:11;;;;;;;119.50;38.33;;;6.40;99.90;;;;;;5096770;28;20044;-73
2022/01/25 13:35:41;;;;;;;113.50;37.33;;;6.40;99.90;;;;;;5097084;28;20052;-73
2022/01/25 13:38:09;;;;;;;123.45;38.95;;;6.50;99.90;;;;;;5096622;28;20083;-73
2022/01/25 13:40:49;;;;;;;116.03;38.15;;;6.30;99.90;;;;;;5096591;28;20052;-73
2022/01/25 13:43:32;;;;;;;121.88;40.33;;;6.20;99.90;;;;;;5096472;28;20479;-73
2022/01/25 13:46:05;;;;;;;124.50;39.38;;;6.20;99.90;;;;;;5096955;28;20136;-73
2022/01/25 13:48:32;;;;;;;112.43;37.65;;;6.40;99.90;;;;;;5096333;28;20059;-73
2022/01/25 13:51:07;;;;;;;115.93;39.72;;;6.20;99.90;;;;;;5096391;28;20048;-73
2022/01/25 13:53:34;;;;;;;116.78;38.53;;;6.20;99.90;;;;;;5096132;28;20490;-73
2022/01/25 13:56:01;;;;;;;121.65;39.30;;;6.10;99.90;;;;;;5095229;28;20101;-73
2022/01/25 13:58:37;;;;;;;122.28;39.55;;;6.20;99.90;;;;;;5094660;28;20052;-73
2022/01/25 14:01:06;;;;;;;129.48;42.38;;;6.10;99.90;;;;;;5095828;28;20055;-73
2022/01/25 14:03:38;;;;;;;127.25;40.83;;;6.10;99.90;;;;;;5095789;28;20066;-73
2022/01/25 14:06:31;;;;;;;139.73;43.55;;;6.20;99.90;;;;;;5079104;28;20367;-74
2022/01/25 14:09:03;;;;;;;139.30;43.47;;;6.20;99.90;;;;;;5095639;28;20375;-73
2022/01/25 14:11:56;;;;;;;127.85;41.20;;;6.10;99.90;;;;;;5095055;28;20087;-73
2022/01/25 14:25:39;;;;;;;120.97;40.65;;;6.30;99.90;;;;;;5095725;28;20087;-73
2022/01/25 14:28:13;;;;;;;111.17;38.00;;;6.20;99.90;;;;;;5094430;28;20105;-73
2022/01/25 14:30:43;;;;;;;129.65;40.53;;;6.10;99.90;;;;;;5095665;28;20453;-73
2022/01/25 14:33:12;;;;;;;133.15;43.83;;;6.00;99.90;;;;;;5094625;28;20044;-73
2022/01/25 14:35:53;;;;;;;134.40;43.58;;;5.90;99.90;;;;;;5094554;28;20044;-73
2022/01/25 14:38:21;;;;;;;127.10;42.05;;;5.90;99.90;;;;;;5095639;28;20052;-73
2022/01/25 14:41:18;;;;;;;130.00;42.13;;;6.00;99.90;;;;;;5095455;28;20048;-73
2022/01/25 14:43:49;;;;;;;128.30;42.90;;;6.00;99.90;;;;;;5087387;28;20487;-73